Time;durP1;ratioP1;P1;durP2;ratioP2;P2;SDS_P1;SDS_P2;PMS_P1;PMS_P2;Temp;Humidity;BMP_temperature;BMP_pressure;BME280_temperature;BME280_humidity;BME280_pressure;Samples;Min_cycle;Max_cycle;Signal;HPM_P1;HPM_P2
2022/05/16 00:02:11;;;;;;;11.50;4.95;;;;;;;20.09;85.28;100667.06;5044413;28;20036;-86
2022/05/16 00:04:40;;;;;;;15.68;5.25;;;;;;;20.22;79.64;100659.94;5048701;28;20061;-86
2022/05/16 00:07:06;;;;;;;17.15;5.30;;;;;;;20.49;77.58;100666.72;5038010;28;20047;-88
2022/05/16 00:09:32;;;;;;;8.65;4.68;;;;;;;20.64;76.91;100669.88;5044585;28;20093;-87
2022/05/16 00:11:57;;;;;;;13.57;5.32;;;;;;;20.75;76.87;100665.63;5044136;28;20033;-86
2022/05/16 00:14:23;;;;;;;8.32;4.82;;;;;;;20.96;75.43;100668.66;5041463;28;20025;-86
2022/05/16 00:16:49;;;;;;;12.52;6.32;;;;;;;20.98;75.64;100671.16;5023182;28;20033;-85
2022/05/16 00:19:15;;;;;;;16.35;6.88;;;;;;;20.83;76.83;100676.91;5037351;28;20040;-86
2022/05/16 00:21:40;;;;;;;17.10;7.55;;;;;;;20.69;78.07;100678.09;5028942;28;20033;-85
2022/05/16 00:24:06;;;;;;;16.55;7.15;;;;;;;20.66;78.78;100666.94;5034978;28;20033;-85
2022/05/16 00:26:31;;;;;;;15.60;8.30;;;;;;;20.75;78.32;100677.19;5035273;28;20152;-86
2022/05/16 00:28:58;;;;;;;17.73;8.38;;;;;;;20.71;78.75;100669.81;5034907;28;20175;-84
2022/05/16 00:31:27;;;;;;;14.00;8.02;;;;;;;20.78;78.78;100674.06;5035056;28;20120;-87
2022/05/16 00:33:52;;;;;;;15.82;7.50;;;;;;;20.78;78.95;100671.34;5017074;28;20044;-86
2022/05/16 00:36:18;;;;;;;17.10;8.10;;;;;;;20.78;79.05;100671.34;5034705;28;20025;-85
2022/05/16 00:38:43;;;;;;;13.60;7.07;;;;;;;20.81;79.12;100676.31;5034311;28;20045;-85
2022/05/16 00:41:09;;;;;;;14.38;7.70;;;;;;;20.71;79.48;100672.50;5034645;28;20036;-86
2022/05/16 00:43:45;;;;;;;12.43;7.75;;;;;;;20.66;80.21;100673.16;5034380;28;20037;-88
2022/05/16 00:46:13;;;;;;;13.45;7.55;;;;;;;20.67;79.72;100674.81;5016429;28;20072;-88
2022/05/16 00:48:39;;;;;;;17.38;8.30;;;;;;;20.55;80.68;100673.91;5034545;28;20058;-88
2022/05/16 00:51:07;;;;;;;17.88;8.43;;;;;;;20.53;81.38;100667.94;5017530;28;20033;-85
2022/05/16 00:53:32;;;;;;;12.70;7.70;;;;;;;20.77;80.01;100677.00;5048509;28;20034;-85
2022/05/16 00:56:01;;;;;;;13.35;7.25;;;;;;;20.68;80.40;100675.66;5046656;28;20037;-87
2022/05/16 00:58:28;;;;;;;15.35;7.85;;;;;;;20.62;80.08;100677.34;5016409;28;20087;-87
2022/05/16 01:00:54;;;;;;;14.77;7.03;;;;;;;20.42;81.02;100671.34;5034309;28;20561;-87
2022/05/16 01:06:07;;;;;;;13.48;7.15;;;;;;;20.20;82.60;100675.47;5033621;28;20033;-82
2022/05/16 01:08:37;;;;;;;11.40;6.95;;;;;;;20.15;82.72;100664.56;5033657;28;20184;-87
2022/05/16 01:11:08;;;;;;;15.13;6.43;;;;;;;20.02;83.52;100658.22;4999506;28;20033;-84
2022/05/16 01:13:33;;;;;;;18.77;7.80;;;;;;;19.90;84.50;100662.69;5033820;28;20091;-87
2022/05/16 01:16:02;;;;;;;15.43;7.53;;;;;;;19.84;85.43;100670.81;5033959;28;20483;-85
2022/05/16 01:18:27;;;;;;;17.27;7.40;;;;;;;20.07;83.58;100673.72;5033528;28;20125;-86
2022/05/16 01:21:05;;;;;;;22.70;7.10;;;;;;;20.02;83.88;100669.00;5016155;28;20162;-86
2022/05/16 01:23:37;;;;;;;16.67;7.25;;;;;;;19.83;85.57;100667.28;5033735;28;20479;-86
2022/05/16 01:26:11;;;;;;;13.23;6.70;;;;;;;19.99;84.29;100672.13;5033359;28;20034;-85
2022/05/16 01:28:37;;;;;;;11.85;6.80;;;;;;;20.04;83.89;100668.78;5033766;28;20045;-85
2022/05/16 01:31:02;;;;;;;15.50;7.18;;;;;;;19.97;84.07;100668.84;5032892;28;20044;-84
2022/05/16 01:33:28;;;;;;;21.17;8.00;;;;;;;20.05;83.57;100671.25;5033384;28;20502;-85
2022/05/16 01:35:54;;;;;;;9.65;6.50;;;;;;;20.01;84.07;100663.84;5033497;28;20415;-86
2022/05/16 01:38:22;;;;;;;13.57;7.60;;;;;;;19.93;84.57;100678.38;4999182;28;20034;-86
2022/05/16 01:41:09;;;;;;;14.82;6.72;;;;;;;20.06;83.43;100677.44;5033339;28;20033;-86
2022/05/16 01:43:38;;;;;;;12.45;6.57;;;;;;;20.21;82.42;100679.81;5033355;28;20029;-85
2022/05/16 01:46:06;;;;;;;13.90;6.63;;;;;;;20.06;83.22;100683.66;5032812;28;20049;-84
2022/05/16 01:48:32;;;;;;;14.18;6.70;;;;;;;20.15;83.12;100696.84;4999026;28;20105;-86
2022/05/16 01:51:01;;;;;;;14.43;6.38;;;;;;;20.29;82.34;100687.63;5033121;28;20033;-85
2022/05/16 01:53:27;;;;;;;13.68;6.53;;;;;;;20.23;82.59;100685.78;5032917;28;20041;-85
2022/05/16 01:55:53;;;;;;;13.95;6.57;;;;;;;20.21;81.59;100677.13;5032907;28;20065;-86
2022/05/16 01:58:18;;;;;;;12.25;6.68;;;;;;;19.83;83.06;100671.84;5032889;28;20070;-84
2022/05/16 02:00:44;;;;;;;14.20;7.28;;;;;;;19.64;84.80;100670.97;5015249;28;20076;-85
2022/05/16 02:03:10;;;;;;;13.88;6.82;;;;;;;19.82;83.51;100676.41;5015118;28;20072;-88
2022/05/16 02:05:36;;;;;;;13.23;6.68;;;;;;;19.69;84.44;100673.81;5033008;28;20033;-85
2022/05/16 02:08:02;;;;;;;12.20;6.60;;;;;;;19.75;83.30;100675.66;5032825;28;20029;-87
2022/05/16 02:10:28;;;;;;;10.52;6.10;;;;;;;19.57;84.16;100683.63;5033333;28;20114;-87
2022/05/16 02:12:57;;;;;;;12.82;6.13;;;;;;;19.38;85.05;100673.78;5051040;28;20021;-87
2022/05/16 02:15:24;;;;;;;15.30;6.63;;;;;;;19.32;86.18;100680.03;5046601;28;20042;-86
2022/05/16 02:17:50;;;;;;;12.85;6.20;;;;;;;19.48;84.63;100682.25;5033193;28;20391;-86
2022/05/16 02:20:15;;;;;;;11.23;6.10;;;;;;;19.41;85.52;100684.13;5015053;28;20112;-87
2022/05/16 02:25:27;;;;;;;22.08;6.40;;;;;;;19.44;84.98;100694.44;5017321;28;20436;-85
2022/05/16 02:27:53;;;;;;;16.85;5.88;;;;;;;19.29;86.24;100681.25;5032625;28;20029;-85
2022/05/16 02:30:21;;;;;;;10.68;6.15;;;;;;;19.34;86.38;100686.00;5032538;28;20057;-85
2022/05/16 02:32:48;;;;;;;15.00;6.43;;;;;;;19.31;86.03;100678.38;5032754;28;20033;-85
2022/05/16 02:35:14;;;;;;;10.07;6.10;;;;;;;19.33;86.63;100681.66;5014889;28;20034;-82
2022/05/16 02:37:39;;;;;;;15.15;6.75;;;;;;;19.17;88.52;100671.41;5032158;28;20080;-85
2022/05/16 02:40:06;;;;;;;8.10;5.63;;;;;;;19.37;87.56;100685.56;4998492;28;20048;-84
2022/05/16 02:42:32;;;;;;;10.20;5.88;;;;;;;19.45;86.38;100677.28;5033473;28;20069;-84
2022/05/16 02:44:57;;;;;;;14.90;6.32;;;;;;;19.38;87.00;100677.31;5036338;28;20056;-85
2022/05/16 02:47:24;;;;;;;16.02;5.88;;;;;;;19.60;85.52;100678.63;5036356;28;20041;-85
2022/05/16 02:49:51;;;;;;;11.10;6.43;;;;;;;19.55;85.83;100681.13;5036196;28;20087;-85
2022/05/16 02:52:17;;;;;;;18.65;6.35;;;;;;;19.53;85.58;100677.03;5037299;28;20041;-83
2022/05/16 02:54:43;;;;;;;14.00;6.57;;;;;;;19.21;88.33;100669.94;5020667;28;20396;-84
2022/05/16 02:57:09;;;;;;;17.23;6.82;;;;;;;19.22;87.90;100671.59;5037997;28;20025;-85
2022/05/16 02:59:37;;;;;;;11.93;5.85;;;;;;;18.98;89.80;100673.97;5037379;28;20512;-87
2022/05/16 03:02:05;;;;;;;18.35;6.45;;;;;;;19.26;87.42;100670.94;5018733;28;20047;-87
2022/05/16 03:04:31;;;;;;;13.43;6.57;;;;;;;19.27;87.47;100683.34;5018170;28;20037;-86
2022/05/16 03:06:58;;;;;;;12.60;6.53;;;;;;;19.22;87.53;100674.28;5018772;28;20068;-85
2022/05/16 03:09:25;;;;;;;17.70;6.60;;;;;;;19.09;88.45;100675.97;5018228;28;20033;-86
2022/05/16 03:11:52;;;;;;;15.15;6.78;;;;;;;18.89;89.80;100680.59;5035972;28;20033;-87
2022/05/16 03:14:17;;;;;;;17.17;7.15;;;;;;;18.78;91.18;100683.16;5036352;28;20512;-87
2022/05/16 03:16:43;;;;;;;14.70;6.35;;;;;;;18.63;92.92;100669.97;5035913;28;20067;-87
2022/05/16 03:19:09;;;;;;;14.48;6.85;;;;;;;18.69;92.41;100679.88;5036147;28;20120;-85
2022/05/16 03:21:35;;;;;;;11.05;6.57;;;;;;;18.56;92.84;100679.88;5019373;28;20065;-85
2022/05/16 03:24:00;;;;;;;11.70;6.55;;;;;;;18.59;93.00;100680.28;5036011;28;20081;-86
2022/05/16 03:26:26;;;;;;;12.73;6.72;;;;;;;18.50;92.97;100681.56;5018237;28;20038;-87
2022/05/16 03:28:52;;;;;;;13.93;6.65;;;;;;;18.56;92.90;100674.50;5018524;28;20029;-87
2022/05/16 03:31:19;;;;;;;16.38;7.18;;;;;;;18.51;93.52;100690.44;5043123;28;20037;-85
2022/05/16 03:33:45;;;;;;;16.33;6.93;;;;;;;18.57;92.78;100687.75;5054331;28;20496;-85
2022/05/16 03:36:11;;;;;;;14.20;6.68;;;;;;;18.58;92.61;100686.72;5019964;28;20040;-87
2022/05/16 03:41:22;;;;;;;11.88;6.30;;;;;;;18.56;92.77;100690.63;5038383;28;20034;-85
2022/05/16 03:43:49;;;;;;;12.90;6.47;;;;;;;18.63;92.36;100688.75;5019960;28;20044;-84
2022/05/16 03:46:15;;;;;;;15.60;7.28;;;;;;;18.36;93.68;100684.47;5040866;28;20037;-86
2022/05/16 03:48:40;;;;;;;16.25;7.38;;;;;;;18.36;93.79;100689.81;5036407;28;20040;-85
2022/05/16 03:51:08;;;;;;;16.92;7.63;;;;;;;18.56;92.94;100691.44;5036171;28;20037;-83
2022/05/16 03:53:43;;;;;;;12.90;6.63;;;;;;;18.66;92.15;100696.38;5035569;28;20030;-86
2022/05/16 03:56:09;;;;;;;12.23;7.43;;;;;;;18.72;91.86;100690.19;5035350;28;20038;-85
2022/05/16 03:58:35;;;;;;;15.55;6.15;;;;;;;18.66;91.88;100696.38;5036309;28;20498;-84
2022/05/16 04:01:00;;;;;;;16.80;7.15;;;;;;;18.38;94.44;100693.13;5035463;28;20029;-85
2022/05/16 04:03:27;;;;;;;14.18;7.00;;;;;;;18.40;94.86;100691.88;5037219;28;20025;-84
2022/05/16 04:05:52;;;;;;;17.50;7.13;;;;;;;18.28;95.38;100695.38;5019919;28;20042;-85
2022/05/16 04:08:18;;;;;;;14.95;6.95;;;;;;;18.23;95.58;100689.84;5017597;28;20060;-86
2022/05/16 04:10:43;;;;;;;21.42;6.63;;;;;;;18.31;96.17;100697.66;5035516;28;20076;-86
2022/05/16 04:13:09;;;;;;;15.98;7.07;;;;;;;18.13;97.54;100692.13;5034870;28;20419;-85
2022/05/16 04:15:34;;;;;;;23.33;7.25;;;;;;;18.02;99.20;100699.75;5036519;28;20029;-87
2022/05/16 04:18:00;;;;;;;11.88;7.10;;;;;;;18.01;99.83;100699.94;5035629;28;20033;-87
2022/05/16 04:20:26;;;;;;;15.57;7.13;;;;;;;18.24;98.91;100707.56;5034968;28;20053;-85
2022/05/16 04:22:52;;;;;;;16.77;7.55;;;;;;;18.26;98.14;100706.31;5035306;28;20480;-87
2022/05/16 04:25:20;;;;;;;14.15;7.30;;;;;;;18.28;97.87;100709.63;5039008;28;20035;-84
2022/05/16 04:27:45;;;;;;;12.30;7.28;;;;;;;18.15;99.22;100708.81;5003262;28;20025;-86
2022/05/16 04:30:12;;;;;;;16.77;7.90;;;;;;;18.31;98.61;100713.75;5017477;28;20083;-85
2022/05/16 04:32:38;;;;;;;22.63;8.32;;;;;;;18.46;97.61;100719.75;5017526;28;20129;-84
2022/05/16 04:35:04;;;;;;;15.68;7.97;;;;;;;18.35;98.03;100720.38;5037539;28;20026;-87
2022/05/16 04:37:32;;;;;;;15.50;7.30;;;;;;;18.32;99.06;100715.41;5019314;28;20045;-90
2022/05/16 04:40:00;;;;;;;14.43;7.35;;;;;;;18.42;98.03;100713.97;5019162;28;20030;-86
2022/05/16 04:42:41;;;;;;;12.57;7.65;;;;;;;18.58;97.30;100721.63;5018701;28;20095;-88
2022/05/16 04:45:20;;;;;;;20.83;7.97;;;;;;;18.68;95.96;100721.19;5037900;28;20116;-84
2022/05/16 04:47:59;;;;;;;21.67;8.13;;;;;;;18.86;95.24;100731.22;5041224;28;20033;-86
2022/05/16 04:50:28;;;;;;;18.15;7.07;;;;;;;18.92;94.25;100728.56;5042719;28;20048;-83
2022/05/16 04:52:54;;;;;;;19.77;7.35;;;;;;;19.17;93.79;100736.72;5051677;28;20033;-83
2022/05/16 04:55:21;;;;;;;15.18;7.10;;;;;;;19.16;92.95;100735.06;5047127;28;20071;-88
2022/05/16 04:57:47;;;;;;;12.27;7.32;;;;;;;19.20;93.74;100741.66;5042609;28;20082;-84
2022/05/16 05:00:14;;;;;;;14.48;7.18;;;;;;;19.29;91.38;100739.59;5034347;28;20022;-86
2022/05/16 05:02:40;;;;;;;14.75;7.18;;;;;;;19.08;92.17;100749.56;5017730;28;20168;-85
2022/05/16 05:05:10;;;;;;;12.45;7.00;;;;;;;19.39;88.89;100750.69;5033381;28;20112;-90
2022/05/16 05:07:37;;;;;;;15.63;7.30;;;;;;;19.28;90.59;100744.13;5035909;28;20034;-86
2022/05/16 05:15:34;;;;;;;14.80;7.38;;;;;;;19.29;90.41;100756.50;5041376;28;20055;-88
2022/05/16 05:18:00;;;;;;;15.85;6.97;;;;;;;19.47;89.69;100758.53;5040192;28;20033;-87
2022/05/16 05:20:26;;;;;;;14.82;7.07;;;;;;;19.69;87.54;100757.16;5040166;28;20056;-87
2022/05/16 05:22:52;;;;;;;22.58;6.70;;;;;;;19.87;85.38;100768.03;5019068;28;20052;-89
2022/05/16 05:25:19;;;;;;;15.95;6.60;;;;;;;20.03;84.12;100770.22;5039971;28;20029;-89
2022/05/16 05:27:46;;;;;;;16.75;7.38;;;;;;;20.08;81.69;100766.88;5038363;28;20044;-86
2022/05/16 05:30:15;;;;;;;23.02;7.47;;;;;;;20.10;81.29;100776.38;5039009;28;20095;-89
2022/05/16 05:32:42;;;;;;;17.38;7.93;;;;;;;20.12;81.00;100778.81;5039777;28;20038;-83
2022/05/16 05:35:09;;;;;;;16.33;6.78;;;;;;;20.14;79.92;100776.75;5043958;28;20052;-88
2022/05/16 05:37:35;;;;;;;19.83;7.13;;;;;;;20.01;82.19;100774.16;5043386;28;20029;-83
2022/05/16 05:40:01;;;;;;;20.10;6.90;;;;;;;20.03;82.31;100775.59;5045952;28;20033;-84
2022/05/16 05:42:28;;;;;;;19.73;7.03;;;;;;;20.35;80.55;100767.53;5056127;28;20035;-84
2022/05/16 05:44:54;;;;;;;23.38;7.43;;;;;;;20.51;78.38;100769.66;5067478;28;20064;-84
2022/05/16 05:47:22;;;;;;;15.38;6.47;;;;;;;20.83;76.39;100775.75;5066665;28;20032;-86
2022/05/16 05:49:47;;;;;;;15.07;6.30;;;;;;;20.92;75.44;100772.56;5051159;28;20029;-84
2022/05/16 05:52:16;;;;;;;20.45;6.80;;;;;;;21.06;75.67;100779.47;5064194;28;20041;-86
2022/05/16 05:54:42;;;;;;;19.70;6.88;;;;;;;21.37;73.88;100780.38;5064901;28;20040;-88
2022/05/16 05:57:09;;;;;;;16.85;6.80;;;;;;;21.52;74.23;100781.63;5029333;28;20034;-87
2022/05/16 05:59:34;;;;;;;14.43;6.07;;;;;;;21.88;71.91;100783.41;5050979;28;20089;-84
2022/05/16 06:02:00;;;;;;;14.82;6.05;;;;;;;22.60;68.87;100776.09;5026916;28;20029;-86
2022/05/16 06:04:26;;;;;;;16.63;6.60;;;;;;;23.10;65.49;100779.94;5037881;28;20531;-83
2022/05/16 06:06:51;;;;;;;21.75;6.30;;;;;;;23.81;61.15;100788.69;5037582;28;20034;-84
2022/05/16 06:09:17;;;;;;;9.13;5.30;;;;;;;24.55;57.13;100788.41;5035645;28;20025;-85
2022/05/16 06:11:43;;;;;;;18.05;5.20;;;;;;;25.16;58.34;100795.53;5047881;28;20025;-86
2022/05/16 06:14:08;;;;;;;13.88;4.65;;;;;;;25.65;50.96;100799.16;5038014;28;20049;-83
2022/05/16 06:16:34;;;;;;;19.02;5.10;;;;;;;25.30;49.47;100795.16;5034537;28;20038;-84
2022/05/16 06:19:00;;;;;;;12.65;4.82;;;;;;;25.59;48.05;100802.06;5036811;28;20037;-84
2022/05/16 06:21:25;;;;;;;16.92;4.60;;;;;;;25.36;48.34;100802.28;5036892;28;20029;-85
2022/05/16 06:23:51;;;;;;;20.58;4.20;;;;;;;26.54;46.12;100804.13;5036982;28;20037;-86
2022/05/16 06:26:16;;;;;;;25.83;5.03;;;;;;;27.32;42.48;100810.59;5036725;28;20555;-85
2022/05/16 06:28:43;;;;;;;11.38;4.47;;;;;;;27.08;42.69;100813.75;5037381;28;20036;-85
2022/05/16 06:31:09;;;;;;;15.27;4.32;;;;;;;27.19;42.42;100810.00;5037797;28;20045;-86
2022/05/16 06:33:35;;;;;;;19.10;4.65;;;;;;;26.51;43.44;100818.22;5019490;28;20044;-84
2022/05/16 06:36:02;;;;;;;15.55;4.15;;;;;;;26.62;43.87;100819.94;5037313;28;20038;-87
2022/05/16 06:38:33;;;;;;;17.73;4.20;;;;;;;26.56;44.74;100824.53;5037150;28;20025;-85
2022/05/16 06:40:59;;;;;;;19.17;4.40;;;;;;;27.49;42.49;100824.84;5037123;28;20030;-86
2022/05/16 06:43:28;;;;;;;10.43;3.97;;;;;;;28.09;40.04;100825.06;5019173;28;20030;-84
2022/05/16 06:45:54;;;;;;;12.82;4.00;;;;;;;29.70;37.27;100837.66;5036946;28;20443;-85
2022/05/16 06:48:20;;;;;;;14.68;4.43;;;;;;;29.98;36.44;100830.72;5037149;28;20029;-87
2022/05/16 06:50:47;;;;;;;11.35;4.43;;;;;;;30.12;37.06;100837.19;5036469;28;20065;-86
2022/05/16 06:53:15;;;;;;;17.90;4.65;;;;;;;29.01;38.91;100831.31;5036209;28;20045;-85
2022/05/16 06:55:41;;;;;;;12.77;4.68;;;;;;;27.83;41.46;100828.81;5006498;28;20553;-85
2022/05/16 06:58:07;;;;;;;17.98;4.15;;;;;;;27.14;43.41;100818.16;5048419;28;20043;-86
2022/05/16 07:00:33;;;;;;;15.57;4.75;;;;;;;26.20;44.98;100828.00;5037791;28;20037;-87
2022/05/16 07:02:59;;;;;;;13.43;4.57;;;;;;;26.59;45.08;100825.88;5055929;28;20064;-87
2022/05/16 07:05:24;;;;;;;9.60;3.75;;;;;;;26.97;43.25;100833.00;5055893;28;20033;-84
2022/05/16 07:07:51;;;;;;;13.18;3.97;;;;;;;26.98;42.79;100821.84;5037522;28;20063;-86
2022/05/16 07:10:17;;;;;;;8.38;3.63;;;;;;;28.34;39.92;100829.72;5055865;28;20441;-85
2022/05/16 07:12:42;;;;;;;18.83;4.45;;;;;;;28.30;39.55;100825.09;5056293;28;20120;-86
2022/05/16 07:15:08;;;;;;;10.02;3.97;;;;;;;29.15;37.67;100822.28;5055373;28;20029;-86
2022/05/16 07:17:34;;;;;;;11.82;4.50;;;;;;;29.55;35.95;100826.00;5038074;28;20039;-86
2022/05/16 07:19:59;;;;;;;13.68;4.60;;;;;;;28.81;37.11;100825.91;5056902;28;20044;-87
2022/05/16 07:22:25;;;;;;;14.35;4.40;;;;;;;27.89;38.68;100824.16;5056386;28;20048;-85
2022/05/16 07:24:55;;;;;;;10.18;4.20;;;;;;;27.68;39.31;100823.28;5045638;28;20033;-87
2022/05/16 07:30:08;;;;;;;14.65;4.80;;;;;;;29.13;37.70;100819.00;5055249;28;20028;-85
2022/05/16 07:32:36;;;;;;;13.57;4.85;;;;;;;29.15;37.41;100821.47;5067359;28;20041;-87
2022/05/16 07:35:05;;;;;;;15.73;5.05;;;;;;;29.15;38.15;100811.38;5056001;28;20060;-88
2022/05/16 07:37:33;;;;;;;13.48;4.72;;;;;;;29.28;37.71;100814.63;5038392;28;20043;-84
2022/05/16 07:39:58;;;;;;;10.50;4.65;;;;;;;29.47;36.88;100818.38;5055531;28;20083;-89
2022/05/16 07:42:25;;;;;;;10.70;4.38;;;;;;;29.14;38.01;100809.72;5056058;28;20025;-87
2022/05/16 07:44:50;;;;;;;13.50;5.55;;;;;;;28.21;39.48;100806.53;5055412;28;20553;-88
2022/05/16 07:47:16;;;;;;;20.58;4.80;;;;;;;27.72;40.47;100802.59;5055655;28;20025;-87
2022/05/16 07:49:42;;;;;;;18.63;4.57;;;;;;;28.66;39.32;100803.03;5022139;28;20408;-85
2022/05/16 07:52:08;;;;;;;11.32;4.10;;;;;;;29.21;37.72;100793.88;5035557;28;20029;-86
2022/05/16 07:54:34;;;;;;;12.93;3.90;;;;;;;31.08;34.22;100805.47;5035749;28;20072;-86
2022/05/16 07:57:02;;;;;;;14.90;3.80;;;;;;;30.53;34.34;100804.88;5035776;28;20437;-87
2022/05/16 07:59:31;;;;;;;11.45;4.35;;;;;;;30.00;35.02;100803.06;5040183;28;20506;-85
2022/05/16 08:01:56;;;;;;;8.70;3.95;;;;;;;29.88;35.06;100797.97;5054908;28;20032;-85
2022/05/16 08:04:22;;;;;;;11.23;4.20;;;;;;;29.87;34.55;100800.97;5054997;28;20191;-86
2022/05/16 08:06:48;;;;;;;16.95;4.00;;;;;;;29.04;36.44;100792.56;5055125;28;20025;-86
2022/05/16 08:11:57;;;;;;;8.30;3.88;;;;;;;29.35;36.59;100796.03;5054800;28;20033;-86
2022/05/16 08:14:23;;;;;;;9.35;4.15;;;;;;;29.43;37.21;100800.94;5037326;28;20038;-85
2022/05/16 08:16:49;;;;;;;14.55;3.90;;;;;;;29.79;35.95;100802.38;5055108;28;20056;-85
2022/05/16 08:19:14;;;;;;;11.80;3.95;;;;;;;30.48;34.21;100799.47;5054634;28;20064;-86
2022/05/16 08:21:41;;;;;;;13.32;6.03;;;;;;;29.39;36.69;100799.84;5054904;28;20037;-86
2022/05/16 08:24:09;;;;;;;19.33;4.50;;;;;;;29.21;36.34;100810.25;5054675;28;20492;-87
2022/05/16 08:26:36;;;;;;;10.05;3.65;;;;;;;29.59;35.32;100813.41;5055053;28;20059;-87
2022/05/16 08:29:03;;;;;;;15.38;3.78;;;;;;;29.09;35.92;100809.75;5054935;28;20037;-86
2022/05/16 08:31:31;;;;;;;16.98;3.60;;;;;;;28.24;37.53;100811.44;5057423;28;20052;-88
2022/05/16 08:33:57;;;;;;;22.90;4.65;;;;;;;28.46;37.36;100810.38;5058234;28;20040;-87
2022/05/16 08:42:05;;;;;;;11.27;3.35;;;;;;;30.71;33.16;100827.97;5057159;28;20033;-87
2022/05/16 08:44:59;;;;;;;21.08;3.78;;;;;;;31.77;31.97;100826.81;5062842;28;20040;-86
2022/05/16 08:47:57;;;;;;;8.20;3.58;;;;;;;31.40;31.79;100823.97;5063844;28;20465;-86
2022/05/16 08:50:38;;;;;;;14.55;3.92;;;;;;;31.74;31.96;100822.72;4958789;29;20059;-86
2022/05/16 08:53:13;;;;;;;13.10;4.53;;;;;;;31.33;33.47;100826.25;4955534;29;20248;-86
2022/05/16 08:55:43;;;;;;;22.08;5.13;;;;;;;30.45;35.62;100821.94;4957355;29;20153;-85
2022/05/16 08:58:20;;;;;;;13.98;4.90;;;;;;;30.28;37.00;100821.47;4953656;28;20046;-89
2022/05/16 09:01:11;;;;;;;17.52;4.65;;;;;;;31.52;33.59;100824.41;4996571;28;20503;-86
2022/05/16 09:03:50;;;;;;;11.50;4.35;;;;;;;31.56;33.57;100822.69;5044128;28;20076;-87
2022/05/16 09:06:24;;;;;;;20.73;5.22;;;;;;;31.50;34.21;100818.34;5055228;28;20029;-85
2022/05/16 09:09:07;;;;;;;8.23;4.55;;;;;;;31.58;34.77;100817.75;5037629;28;20037;-85
2022/05/16 09:11:36;;;;;;;17.38;4.57;;;;;;;30.95;35.97;100822.53;5038865;28;20037;-88
2022/05/16 09:14:16;;;;;;;11.55;4.13;;;;;;;31.17;34.95;100810.00;5057072;28;20491;-87
2022/05/16 09:17:19;;;;;;;12.98;4.80;;;;;;;30.92;35.04;100812.19;5057764;28;20063;-89
2022/05/16 09:20:04;;;;;;;10.52;4.20;;;;;;;30.38;36.36;100815.09;5045915;28;20040;-93
2022/05/16 09:30:49;;;;;;;10.38;3.95;;;;;;;31.28;31.99;100810.69;827408;22;20080;-88
2022/05/16 09:33:25;;;;;;;9.48;3.90;;;;;;;31.25;32.21;100809.34;5041661;28;20025;-90
2022/05/16 09:36:01;;;;;;;13.85;4.38;;;;;;;31.37;30.91;100816.34;5057989;28;20052;-90
2022/05/16 09:38:28;;;;;;;13.50;3.75;;;;;;;31.53;31.00;100818.63;5040083;28;20033;-89
2022/05/16 09:41:09;;;;;;;10.02;2.95;;;;;;;32.05;29.76;100809.41;5000800;28;20034;-89
2022/05/16 09:44:07;;;;;;;10.07;2.95;;;;;;;32.73;30.56;100806.09;5053932;28;20029;-92
2022/05/16 09:46:44;;;;;;;14.32;3.20;;;;;;;32.24;27.88;100802.00;5050851;28;20044;-90
2022/05/16 09:49:50;;;;;;;10.98;3.45;;;;;;;31.53;29.81;100799.44;5004289;28;20041;-91
2022/05/16 09:52:26;;;;;;;8.48;3.20;;;;;;;31.65;30.35;100799.03;5075767;23;20045;-90
2022/05/16 09:55:10;;;;;;;9.98;3.20;;;;;;;31.59;30.17;100794.69;5080530;28;20048;-90
2022/05/16 09:58:02;;;;;;;11.65;3.65;;;;;;;31.99;29.27;100804.25;5095915;22;20048;-88
2022/05/16 10:00:52;;;;;;;15.57;3.15;;;;;;;31.93;29.74;100795.31;5041568;28;20022;-89
2022/05/16 10:04:02;;;;;;;6.63;3.10;;;;;;;31.73;28.44;100790.13;5033350;23;20041;-90
2022/05/16 10:06:37;;;;;;;11.38;3.00;;;;;;;31.48;29.51;100784.97;5040775;28;20071;-91
2022/05/16 10:09:15;;;;;;;12.15;2.47;;;;;;;31.56;29.28;100784.31;5034521;28;20068;-88
2022/05/16 10:11:45;;;;;;;10.52;3.25;;;;;;;31.60;30.40;100777.16;5057296;28;20093;-87
2022/05/16 10:14:20;;;;;;;14.80;3.50;;;;;;;31.87;31.21;100768.25;5040553;28;20048;-91
2022/05/16 10:16:53;;;;;;;12.95;3.05;;;;;;;31.92;29.65;100769.00;5058014;28;20029;-86
2022/05/16 10:19:26;;;;;;;9.85;2.50;;;;;;;32.50;28.54;100766.69;5057968;28;20020;-91
2022/05/16 10:22:15;;;;;;;9.43;3.10;;;;;;;32.34;28.93;100767.25;5024826;28;20042;-87
2022/05/16 10:24:53;;;;;;;13.15;3.15;;;;;;;31.54;29.81;100759.16;5041118;28;20048;-88
2022/05/16 10:27:32;;;;;;;10.95;3.20;;;;;;;31.73;30.98;100747.09;5058027;28;20029;-89
2022/05/16 10:30:05;;;;;;;9.10;2.75;;;;;;;32.35;30.31;100760.66;5018374;28;20044;-89
2022/05/16 10:35:30;;;;;;;9.85;3.10;;;;;;;32.17;29.55;100757.66;5058135;28;20033;-89
2022/05/16 10:38:01;;;;;;;8.37;2.87;;;;;;;32.24;30.17;100752.63;5057661;28;20032;-88
2022/05/16 10:40:37;;;;;;;12.43;3.35;;;;;;;32.61;29.99;100748.16;5053467;28;20025;-88
2022/05/16 10:43:33;;;;;;;12.02;3.53;;;;;;;32.95;29.58;100743.06;5018183;28;20018;-87
2022/05/16 10:46:08;;;;;;;7.65;2.90;;;;;;;32.53;29.99;100743.31;5017922;28;20069;-87
2022/05/16 10:48:58;;;;;;;16.45;2.97;;;;;;;32.85;28.88;100742.47;5035444;28;20117;-88
2022/05/16 10:51:33;;;;;;;7.10;3.00;;;;;;;33.05;28.41;100751.09;5036641;28;20045;-87
2022/05/16 10:54:12;;;;;;;7.05;2.80;;;;;;;33.28;28.36;100744.59;5020060;28;20018;-89
2022/05/16 10:56:49;;;;;;;7.80;2.90;;;;;;;33.31;29.30;100742.38;5018168;28;20034;-90
2022/05/16 10:59:27;;;;;;;11.52;3.63;;;;;;;33.69;29.12;100738.22;5017956;28;20034;-91
2022/05/16 11:02:04;;;;;;;13.73;3.10;;;;;;;33.74;28.82;100741.66;5019876;28;20014;-90
2022/05/16 11:04:57;;;;;;;13.50;3.88;;;;;;;33.65;28.07;100737.22;5006476;28;20038;-90
2022/05/16 11:07:46;;;;;;;7.65;3.08;;;;;;;33.87;28.05;100742.75;5024376;28;20065;-88
2022/05/16 11:10:27;;;;;;;12.30;3.30;;;;;;;33.62;28.50;100732.34;5024256;28;20013;-91
2022/05/16 11:13:16;;;;;;;17.48;3.53;;;;;;;33.78;27.75;100736.34;5007219;28;20497;-88
2022/05/16 11:16:15;;;;;;;10.88;3.30;;;;;;;34.50;27.08;100726.03;5038576;28;20034;-88
2022/05/16 11:19:18;;;;;;;12.02;2.70;;;;;;;34.22;27.50;100725.38;4968336;28;20149;-91
2022/05/16 11:22:18;;;;;;;15.90;2.80;;;;;;;33.87;27.60;100720.75;5005806;28;20037;-89
2022/05/16 11:24:50;;;;;;;10.20;3.65;;;;;;;33.88;27.76;100713.28;5025830;28;20037;-90
2022/05/16 11:27:15;;;;;;;;;;;;;;;33.88;28.25;100718.78;5017959;28;20018;-85
2022/05/16 11:30:06;;;;;;;9.25;2.97;;;;;;;33.56;28.29;100711.56;5016531;28;19918;-84
2022/05/16 11:33:18;;;;;;;12.70;2.92;;;;;;;32.60;29.20;100702.59;5031623;28;20034;-87
2022/05/16 11:35:48;;;;;;;10.43;3.50;;;;;;;31.97;30.25;100697.63;4998317;28;20049;-90
2022/05/16 11:38:35;;;;;;;14.13;2.90;;;;;;;31.04;31.15;100689.41;5011573;28;20319;-91
2022/05/16 11:41:27;;;;;;;10.63;2.78;;;;;;;30.11;33.49;100685.19;4996872;28;20041;-89
2022/05/16 11:44:33;;;;;;;11.48;3.55;;;;;;;29.95;33.35;100683.69;5042853;28;20038;-89
2022/05/16 11:47:10;;;;;;;10.63;2.78;;;;;;;30.40;33.13;100671.50;5042038;28;20048;-91
2022/05/16 11:50:16;;;;;;;9.90;3.10;;;;;;;30.03;33.50;100672.13;5026472;28;20041;-91
2022/05/16 11:53:03;;;;;;;15.43;3.13;;;;;;;30.08;33.97;100672.09;5026553;28;20101;-91
2022/05/16 12:01:28;;;;;;;10.05;4.53;;;;;;;29.52;34.99;100655.28;5023230;28;20042;-92
2022/05/16 12:04:36;;;;;;;8.35;3.05;;;;;;;29.62;34.99;100647.03;5005454;28;20041;-88
2022/05/16 12:07:04;;;;;;;17.30;3.22;;;;;;;29.17;35.76;100650.84;4948079;28;20082;-86
2022/05/16 12:09:50;;;;;;;11.65;3.80;;;;;;;29.09;36.88;100639.69;4960672;29;20070;-87
2022/05/16 12:13:10;;;;;;;10.98;3.60;;;;;;;29.26;36.26;100636.63;4964131;28;20066;-89
2022/05/16 12:15:36;;;;;;;8.15;3.17;;;;;;;29.66;36.00;100636.34;4973365;28;20075;-85
2022/05/16 12:18:26;;;;;;;8.43;3.10;;;;;;;29.73;35.21;100626.69;5032265;28;20038;-82
2022/05/16 12:20:58;;;;;;;11.30;2.90;;;;;;;29.60;35.63;100629.28;5023237;28;20098;-84